Time;durP1;ratioP1;P1;durP2;ratioP2;P2;SDS_P1;SDS_P2;PMS_P1;PMS_P2;Temp;Humidity;BMP_temperature;BMP_pressure;BME280_temperature;BME280_humidity;BME280_pressure;Samples;Min_cycle;Max_cycle;Signal;HPM_P1;HPM_P2
2021/10/19 00:01:39;;;;;;;;;;;22.90;45.40;;;;;;1633092;73;723;-71
2021/10/19 00:03:40;;;;;;;;;;;22.80;45.30;;;;;;1632236;71;1147;-70
2021/10/19 00:05:42;;;;;;;;;;;22.90;45.50;;;;;;1604991;71;798;-71
2021/10/19 00:07:44;;;;;;;;;;;22.90;45.40;;;;;;1632799;73;814;-70
2021/10/19 00:09:46;;;;;;;;;;;22.90;45.50;;;;;;1632957;73;634;-70
2021/10/19 00:11:48;;;;;;;;;;;22.80;45.30;;;;;;1632905;73;745;-70
2021/10/19 00:13:50;;;;;;;;;;;22.90;45.50;;;;;;1632701;73;1126;-72
2021/10/19 00:15:52;;;;;;;;;;;22.90;45.50;;;;;;1632427;71;1928;-70
2021/10/19 00:17:53;;;;;;;;;;;22.80;45.30;;;;;;1633069;73;752;-71
2021/10/19 00:19:55;;;;;;;;;;;22.80;45.30;;;;;;1632637;73;624;-71
2021/10/19 00:21:57;;;;;;;;;;;22.80;45.30;;;;;;1619143;73;793;-71
2021/10/19 00:23:59;;;;;;;;;;;22.90;45.50;;;;;;1620980;71;1109;-71
2021/10/19 00:26:01;;;;;;;;;;;22.90;45.50;;;;;;1628037;71;712;-71
2021/10/19 00:28:04;;;;;;;;;;;22.90;45.50;;;;;;1605854;72;722;-70
2021/10/19 00:30:07;;;;;;;;;;;22.90;45.50;;;;;;1602609;74;726;-71
2021/10/19 00:32:08;;;;;;;;;;;22.90;45.50;;;;;;1602706;74;1073;-70
2021/10/19 00:34:10;;;;;;;;;;;22.90;45.50;;;;;;1610619;71;742;-71
2021/10/19 00:36:12;;;;;;;;;;;22.80;45.40;;;;;;1632651;73;1933;-71
2021/10/19 00:38:14;;;;;;;;;;;22.90;45.60;;;;;;1632959;73;743;-72
2021/10/19 00:40:16;;;;;;;;;;;22.80;45.40;;;;;;1632863;73;796;-71
2021/10/19 00:42:18;;;;;;;;;;;22.90;45.50;;;;;;1632566;73;1173;-70
2021/10/19 00:44:20;;;;;;;;;;;22.80;45.40;;;;;;1631243;71;740;-71
2021/10/19 00:46:21;;;;;;;;;;;22.80;45.50;;;;;;1640194;71;762;-71
2021/10/19 00:48:30;;;;;;;;;;;22.90;45.50;;;;;;1619731;73;931;-70
2021/10/19 00:50:27;;;;;;;;;;;22.80;45.50;;;;;;1631858;72;1600;-72
2021/10/19 00:52:29;;;;;;;;;;;22.80;45.50;;;;;;1620693;71;1096;-71
2021/10/19 00:54:31;;;;;;;;;;;22.80;45.50;;;;;;1639147;71;669;-71
2021/10/19 00:56:33;;;;;;;;;;;22.80;45.50;;;;;;1624860;71;1925;-70
2021/10/19 00:58:35;;;;;;;;;;;22.90;45.60;;;;;;1632193;73;790;-70
2021/10/19 01:00:37;;;;;;;;;;;22.90;45.60;;;;;;1613129;73;795;-70
2021/10/19 01:02:43;;;;;;;;;;;22.80;45.50;;;;;;1631206;71;1153;-70
2021/10/19 01:04:43;;;;;;;;;;;22.70;45.50;;;;;;1632243;72;1693;-71
2021/10/19 01:06:45;;;;;;;;;;;22.70;45.50;;;;;;1632867;73;769;-71
2021/10/19 01:08:47;;;;;;;;;;;22.70;45.50;;;;;;1632816;73;734;-71
2021/10/19 01:10:49;;;;;;;;;;;22.70;45.50;;;;;;1631161;73;668;-72
2021/10/19 01:12:51;;;;;;;;;;;22.70;45.50;;;;;;1631475;71;1126;-71
2021/10/19 01:14:53;;;;;;;;;;;22.80;45.50;;;;;;1598546;74;790;-71
2021/10/19 01:16:55;;;;;;;;;;;22.80;45.50;;;;;;1598716;74;1937;-72
2021/10/19 01:18:57;;;;;;;;;;;22.70;45.50;;;;;;1601394;71;716;-72
2021/10/19 01:20:59;;;;;;;;;;;22.70;45.50;;;;;;1632380;71;741;-71
2021/10/19 01:23:00;;;;;;;;;;;22.80;45.50;;;;;;1633108;73;1133;-71
2021/10/19 01:25:02;;;;;;;;;;;22.80;45.50;;;;;;1633191;73;714;-70
2021/10/19 01:27:04;;;;;;;;;;;22.80;45.50;;;;;;1632137;73;795;-71
2021/10/19 01:29:06;;;;;;;;;;;22.70;45.50;;;;;;1631192;71;722;-71
2021/10/19 01:31:08;;;;;;;;;;;22.70;45.50;;;;;;1633141;71;727;-72
2021/10/19 01:33:10;;;;;;;;;;;22.80;45.60;;;;;;1632819;73;1125;-72
2021/10/19 01:35:12;;;;;;;;;;;22.80;45.60;;;;;;1633222;73;795;-71
2021/10/19 01:37:14;;;;;;;;;;;22.80;45.60;;;;;;1619025;71;1938;-71
2021/10/19 01:39:16;;;;;;;;;;;22.70;45.60;;;;;;1621274;71;780;-71
2021/10/19 01:41:17;;;;;;;;;;;22.70;45.70;;;;;;1639919;71;807;-70
2021/10/19 01:43:20;;;;;;;;;;;22.80;45.60;;;;;;1632737;73;1161;-71
2021/10/19 01:45:22;;;;;;;;;;;22.80;45.60;;;;;;1652482;71;807;-71
2021/10/19 01:47:24;;;;;;;;;;;22.70;45.60;;;;;;1663039;71;774;-71
2021/10/19 01:49:25;;;;;;;;;;;22.80;45.50;;;;;;1646316;71;774;-72
2021/10/19 01:51:27;;;;;;;;;;;22.80;45.60;;;;;;1625776;72;762;-72
2021/10/19 01:53:29;;;;;;;;;;;22.70;45.50;;;;;;1625427;73;1109;-73
2021/10/19 01:55:31;;;;;;;;;;;22.70;45.50;;;;;;1625118;73;815;-74
2021/10/19 01:57:33;;;;;;;;;;;22.60;45.40;;;;;;1619948;71;1945;-72
2021/10/19 01:59:35;;;;;;;;;;;22.70;45.60;;;;;;1623008;71;667;-72
2021/10/19 02:01:39;;;;;;;;;;;22.70;45.60;;;;;;1633552;71;706;-70
2021/10/19 02:03:41;;;;;;;;;;;22.70;45.50;;;;;;1618995;72;2073;-68
2021/10/19 02:05:43;;;;;;;;;;;22.70;45.60;;;;;;1611623;73;721;-68
2021/10/19 02:07:45;;;;;;;;;;;22.70;45.60;;;;;;1611622;74;688;-69
2021/10/19 02:09:47;;;;;;;;;;;22.70;45.50;;;;;;1611980;74;697;-70
2021/10/19 02:11:49;;;;;;;;;;;22.70;45.50;;;;;;1610872;72;761;-69
2021/10/19 02:13:51;;;;;;;;;;;22.80;45.60;;;;;;1614258;72;1202;-69
2021/10/19 02:15:53;;;;;;;;;;;22.80;45.70;;;;;;1620355;72;710;-70
2021/10/19 02:17:55;;;;;;;;;;;22.80;45.70;;;;;;1616754;72;1925;-70
2021/10/19 02:20:00;;;;;;;;;;;22.80;45.80;;;;;;1622262;73;717;-70
2021/10/19 02:22:00;;;;;;;;;;;22.70;45.90;;;;;;1621980;72;1134;-70
2021/10/19 02:24:02;;;;;;;;;;;22.80;45.90;;;;;;1621925;72;1092;-69
2021/10/19 02:26:04;;;;;;;;;;;22.70;46.00;;;;;;1622220;73;694;-68
2021/10/19 02:28:06;;;;;;;;;;;22.70;46.00;;;;;;1621538;72;687;-71
2021/10/19 02:30:08;;;;;;;;;;;22.70;46.00;;;;;;1622242;73;696;-72
2021/10/19 02:32:10;;;;;;;;;;;22.70;46.10;;;;;;1622007;72;719;-71
2021/10/19 02:34:12;;;;;;;;;;;22.80;46.20;;;;;;1635730;72;1087;-71
2021/10/19 02:36:14;;;;;;;;;;;22.80;46.20;;;;;;1642115;72;730;-72
2021/10/19 02:38:16;;;;;;;;;;;22.80;46.20;;;;;;1622057;73;1933;-69
2021/10/19 02:40:18;;;;;;;;;;;22.80;46.30;;;;;;1621899;73;726;-69
2021/10/19 02:42:19;;;;;;;;;;;22.70;46.30;;;;;;1622009;72;789;-72
2021/10/19 02:44:21;;;;;;;;;;;22.90;46.30;;;;;;1621843;73;1154;-73
2021/10/19 02:46:25;;;;;;;;;;;22.90;46.10;;;;;;1621556;72;656;-71
2021/10/19 02:48:27;;;;;;;;;;;23.10;46.20;;;;;;1615482;73;1289;-70
2021/10/19 02:50:28;;;;;;;;;;;23.10;46.10;;;;;;1603584;73;710;-69
2021/10/19 02:52:30;;;;;;;;;;;23.00;46.10;;;;;;1620373;73;1131;-69
2021/10/19 02:54:34;;;;;;;;;;;22.90;46.30;;;;;;1621039;72;700;-69
2021/10/19 02:56:35;;;;;;;;;;;22.90;46.40;;;;;;1621863;73;671;-69
2021/10/19 02:58:37;;;;;;;;;;;22.80;46.50;;;;;;1622061;73;1929;-69
2021/10/19 03:00:39;;;;;;;;;;;22.90;46.70;;;;;;1622204;73;738;-69
2021/10/19 03:02:41;;;;;;;;;;;22.80;46.60;;;;;;1621799;73;1132;-69
2021/10/19 03:04:43;;;;;;;;;;;22.80;46.70;;;;;;1620326;72;731;-68
2021/10/19 03:06:45;;;;;;;;;;;22.80;46.70;;;;;;1620662;73;742;-69
2021/10/19 03:08:47;;;;;;;;;;;22.80;46.80;;;;;;1620173;73;682;-69
2021/10/19 03:10:49;;;;;;;;;;;22.80;46.80;;;;;;1620506;73;751;-69
2021/10/19 03:12:51;;;;;;;;;;;22.80;46.80;;;;;;1620446;72;1125;-68
2021/10/19 03:14:53;;;;;;;;;;;22.80;47.00;;;;;;1621562;72;668;-71
2021/10/19 03:16:55;;;;;;;;;;;22.70;47.00;;;;;;1622211;73;1931;-71
2021/10/19 03:18:56;;;;;;;;;;;22.80;47.00;;;;;;1621941;73;728;-71
2021/10/19 03:20:58;;;;;;;;;;;22.70;47.00;;;;;;1621889;72;769;-71
2021/10/19 03:23:00;;;;;;;;;;;22.80;46.90;;;;;;1622086;73;1120;-68
2021/10/19 03:25:02;;;;;;;;;;;22.80;46.90;;;;;;1621926;73;715;-69
2021/10/19 03:27:04;;;;;;;;;;;22.80;46.90;;;;;;1622089;73;771;-69
2021/10/19 03:29:06;;;;;;;;;;;22.80;46.90;;;;;;1621803;72;1070;-70
2021/10/19 03:31:08;;;;;;;;;;;22.80;46.90;;;;;;1621913;73;751;-71
2021/10/19 03:33:10;;;;;;;;;;;22.70;46.90;;;;;;1621702;72;1190;-72
2021/10/19 03:35:12;;;;;;;;;;;22.80;46.80;;;;;;1622004;73;565;-72
2021/10/19 03:37:13;;;;;;;;;;;22.80;46.80;;;;;;1622005;73;1941;-71
2021/10/19 03:39:15;;;;;;;;;;;22.80;46.80;;;;;;1622216;73;715;-72
2021/10/19 03:41:17;;;;;;;;;;;22.90;46.90;;;;;;1621827;72;695;-72
2021/10/19 03:43:19;;;;;;;;;;;22.90;46.80;;;;;;1622138;73;1166;-72
2021/10/19 03:45:21;;;;;;;;;;;22.90;46.80;;;;;;1622139;73;716;-70
2021/10/19 03:47:23;;;;;;;;;;;22.80;46.60;;;;;;1621758;73;711;-70
2021/10/19 03:49:25;;;;;;;;;;;23.00;46.60;;;;;;1602567;72;688;-70
2021/10/19 03:51:27;;;;;;;;;;;23.10;46.30;;;;;;1622006;72;719;-71
2021/10/19 03:53:28;;;;;;;;;;;23.30;45.90;;;;;;1621832;73;1119;-69
2021/10/19 03:55:30;;;;;;;;;;;23.40;45.60;;;;;;1620839;73;790;-70
2021/10/19 03:57:32;;;;;;;;;;;23.40;45.30;;;;;;1620273;73;1932;-70
2021/10/19 03:59:34;;;;;;;;;;;23.50;45.20;;;;;;1620154;72;645;-70
2021/10/19 04:01:37;;;;;;;;;;;23.60;45.10;;;;;;1622067;73;700;-70
2021/10/19 04:03:39;;;;;;;;;;;23.60;45.00;;;;;;1621708;73;1142;-73
2021/10/19 04:05:41;;;;;;;;;;;23.50;45.00;;;;;;1622104;73;716;-68
2021/10/19 04:07:45;;;;;;;;;;;23.50;45.00;;;;;;1621566;72;715;-68
2021/10/19 04:09:46;;;;;;;;;;;23.50;45.00;;;;;;1621209;72;774;-68
2021/10/19 04:11:48;;;;;;;;;;;23.60;45.00;;;;;;1622155;73;760;-68
2021/10/19 04:13:50;;;;;;;;;;;23.50;44.90;;;;;;1622195;73;1147;-70
2021/10/19 04:15:52;;;;;;;;;;;23.50;44.90;;;;;;1622081;73;724;-69
2021/10/19 04:17:54;;;;;;;;;;;23.60;44.80;;;;;;1621483;72;1932;-69
2021/10/19 04:19:56;;;;;;;;;;;23.60;44.80;;;;;;1622162;73;716;-68
2021/10/19 04:21:58;;;;;;;;;;;23.60;44.70;;;;;;1621780;73;636;-69
2021/10/19 04:23:59;;;;;;;;;;;23.60;44.70;;;;;;1622064;73;1429;-68
2021/10/19 04:26:01;;;;;;;;;;;23.60;44.80;;;;;;1621473;72;698;-69
2021/10/19 04:28:03;;;;;;;;;;;23.60;44.70;;;;;;1621996;73;632;-69
2021/10/19 04:30:05;;;;;;;;;;;23.60;44.60;;;;;;1621498;72;684;-70
2021/10/19 04:32:07;;;;;;;;;;;23.70;44.70;;;;;;1621758;73;720;-69
2021/10/19 04:34:09;;;;;;;;;;;23.60;44.50;;;;;;1622089;73;1119;-71
2021/10/19 04:36:11;;;;;;;;;;;23.80;44.60;;;;;;1622083;73;853;-69
2021/10/19 04:38:13;;;;;;;;;;;23.60;44.40;;;;;;1621228;72;1933;-70
2021/10/19 04:40:15;;;;;;;;;;;23.70;44.50;;;;;;1622165;73;750;-69
2021/10/19 04:42:17;;;;;;;;;;;23.70;44.50;;;;;;1622063;73;722;-69
2021/10/19 04:44:19;;;;;;;;;;;23.60;44.50;;;;;;1621939;73;1092;-70
2021/10/19 04:46:20;;;;;;;;;;;23.60;44.60;;;;;;1620085;72;647;-68
2021/10/19 04:48:22;;;;;;;;;;;23.60;44.80;;;;;;1634269;72;695;-70
2021/10/19 04:50:25;;;;;;;;;;;23.60;45.00;;;;;;1595077;73;713;-67
2021/10/19 04:52:27;;;;;;;;;;;23.50;45.10;;;;;;1636518;72;1134;-70
2021/10/19 04:54:29;;;;;;;;;;;23.60;45.10;;;;;;1621966;72;995;-68
2021/10/19 04:56:31;;;;;;;;;;;23.50;45.20;;;;;;1593773;73;710;-72
2021/10/19 04:58:33;;;;;;;;;;;23.50;45.40;;;;;;1593584;74;1899;-72
2021/10/19 05:00:35;;;;;;;;;;;23.60;45.10;;;;;;1593431;74;714;-71
2021/10/19 05:02:44;;;;;;;;;;;23.60;44.90;;;;;;1593659;74;1144;-73
2021/10/19 05:04:46;;;;;;;;;;;23.50;44.90;;;;;;1614854;72;975;-72
2021/10/19 05:06:48;;;;;;;;;;;23.40;44.70;;;;;;1611424;72;693;-73
2021/10/19 05:08:50;;;;;;;;;;;23.40;44.80;;;;;;1619853;72;706;-72
2021/10/19 05:10:52;;;;;;;;;;;23.40;44.90;;;;;;1624135;72;664;-73
2021/10/19 05:12:54;;;;;;;;;;;23.30;44.90;;;;;;1621792;72;1163;-72
2021/10/19 05:14:57;;;;;;;;;;;23.30;45.00;;;;;;1620290;72;748;-71
2021/10/19 05:16:59;;;;;;;;;;;23.30;45.00;;;;;;1607070;72;696;-73
2021/10/19 05:19:01;;;;;;;;;;;23.30;45.00;;;;;;1618441;73;1929;-72
2021/10/19 05:21:05;;;;;;;;;;;23.20;44.90;;;;;;1622051;73;714;-72
2021/10/19 05:23:06;;;;;;;;;;;23.20;45.00;;;;;;1621075;72;1153;-70
2021/10/19 05:25:10;;;;;;;;;;;23.30;44.80;;;;;;1621890;72;740;-68
2021/10/19 05:27:11;;;;;;;;;;;23.30;45.10;;;;;;1621851;73;716;-69
2021/10/19 05:29:13;;;;;;;;;;;23.30;45.10;;;;;;1622101;73;649;-71
2021/10/19 05:31:15;;;;;;;;;;;23.40;45.20;;;;;;1622175;73;712;-69
2021/10/19 05:33:17;;;;;;;;;;;23.40;45.00;;;;;;1621106;72;1219;-71
2021/10/19 05:35:19;;;;;;;;;;;23.40;44.80;;;;;;1622147;73;720;-72
2021/10/19 05:37:21;;;;;;;;;;;23.50;44.90;;;;;;1622019;73;717;-70
2021/10/19 05:39:23;;;;;;;;;;;23.50;44.70;;;;;;1621726;73;1920;-72
2021/10/19 05:41:24;;;;;;;;;;;23.40;44.60;;;;;;1622098;73;732;-71
2021/10/19 05:43:26;;;;;;;;;;;23.30;44.60;;;;;;1620725;72;1115;-70
2021/10/19 05:45:28;;;;;;;;;;;23.30;44.70;;;;;;1621605;73;666;-72
2021/10/19 05:47:30;;;;;;;;;;;23.30;44.70;;;;;;1636562;72;691;-71
2021/10/19 05:49:32;;;;;;;;;;;23.40;44.50;;;;;;1621798;73;718;-71
2021/10/19 05:51:34;;;;;;;;;;;23.30;44.50;;;;;;1622126;73;632;-71
2021/10/19 05:53:36;;;;;;;;;;;23.30;44.60;;;;;;1621377;72;1155;-71
2021/10/19 05:55:38;;;;;;;;;;;23.30;44.60;;;;;;1621739;73;731;-71
2021/10/19 05:57:39;;;;;;;;;;;23.30;44.60;;;;;;1622086;72;711;-71
2021/10/19 05:59:41;;;;;;;;;;;23.20;44.50;;;;;;1622098;72;1929;-72
2021/10/19 06:01:44;;;;;;;;;;;23.20;44.60;;;;;;1621509;72;668;-71
2021/10/19 06:03:45;;;;;;;;;;;23.20;44.50;;;;;;1621604;72;1128;-71
2021/10/19 06:05:47;;;;;;;;;;;23.20;44.50;;;;;;1592016;73;795;-71
2021/10/19 06:07:51;;;;;;;;;;;23.20;44.50;;;;;;1587827;74;799;-71
2021/10/19 06:09:53;;;;;;;;;;;23.20;44.50;;;;;;1588174;74;718;-72
2021/10/19 06:11:55;;;;;;;;;;;23.10;44.40;;;;;;1618306;72;740;-72
2021/10/19 06:13:57;;;;;;;;;;;23.20;44.50;;;;;;1624875;72;1143;-68
2021/10/19 06:15:59;;;;;;;;;;;23.10;44.40;;;;;;1616781;72;700;-71
2021/10/19 06:18:00;;;;;;;;;;;23.20;44.40;;;;;;1618911;72;1931;-71
2021/10/19 06:20:03;;;;;;;;;;;23.20;44.40;;;;;;1602624;72;710;-72
2021/10/19 06:22:05;;;;;;;;;;;23.20;44.40;;;;;;1609319;72;777;-72
2021/10/19 06:24:07;;;;;;;;;;;23.20;44.30;;;;;;1597308;73;1067;-72
2021/10/19 06:26:08;;;;;;;;;;;23.20;44.20;;;;;;1584024;74;726;-73
2021/10/19 06:28:10;;;;;;;;;;;23.10;44.20;;;;;;1582998;75;728;-70
2021/10/19 06:30:12;;;;;;;;;;;23.10;44.20;;;;;;1582198;73;687;-72
2021/10/19 06:32:14;;;;;;;;;;;23.10;44.30;;;;;;1579634;74;732;-72
2021/10/19 06:34:16;;;;;;;;;;;23.10;44.20;;;;;;1578337;74;1107;-70
2021/10/19 06:36:18;;;;;;;;;;;23.10;44.30;;;;;;1586378;74;638;-72
2021/10/19 06:38:20;;;;;;;;;;;23.10;44.30;;;;;;1613750;72;1940;-72
2021/10/19 06:40:22;;;;;;;;;;;23.10;44.30;;;;;;1620817;72;763;-70
2021/10/19 06:42:24;;;;;;;;;;;23.10;44.30;;;;;;1611302;72;691;-71
2021/10/19 06:44:25;;;;;;;;;;;23.10;44.30;;;;;;1613439;72;804;-69
2021/10/19 06:46:27;;;;;;;;;;;23.20;44.20;;;;;;1616563;72;735;-69
2021/10/19 06:48:29;;;;;;;;;;;23.10;44.20;;;;;;1622538;72;724;-70
2021/10/19 06:50:31;;;;;;;;;;;23.10;44.20;;;;;;1610662;73;721;-68
2021/10/19 06:52:36;;;;;;;;;;;23.10;44.20;;;;;;1622962;72;1428;-70
2021/10/19 06:54:36;;;;;;;;;;;23.10;44.20;;;;;;1591672;73;1135;-70
2021/10/19 06:56:38;;;;;;;;;;;23.10;44.20;;;;;;1583249;74;699;-72
2021/10/19 06:58:40;;;;;;;;;;;23.10;44.20;;;;;;1590652;73;1925;-70
2021/10/19 07:00:42;;;;;;;;;;;23.10;44.20;;;;;;1587062;74;762;-70
2021/10/19 07:02:45;;;;;;;;;;;23.10;44.10;;;;;;1591680;74;1160;-65
2021/10/19 07:04:46;;;;;;;;;;;23.10;43.50;;;;;;1589092;74;719;-69
2021/10/19 07:06:48;;;;;;;;;;;23.10;43.40;;;;;;1586943;73;819;-69
2021/10/19 07:08:50;;;;;;;;;;;23.10;42.80;;;;;;1589818;74;683;-70
2021/10/19 07:10:52;;;;;;;;;;;23.00;41.80;;;;;;1591557;74;761;-69
2021/10/19 07:12:54;;;;;;;;;;;23.00;41.50;;;;;;1587380;73;1141;-69
2021/10/19 07:14:56;;;;;;;;;;;23.00;41.10;;;;;;1591697;73;710;-68
2021/10/19 07:16:58;;;;;;;;;;;23.00;40.80;;;;;;1592498;73;718;-69
2021/10/19 07:19:03;;;;;;;;;;;22.90;40.50;;;;;;1592170;73;1925;-69
2021/10/19 07:21:04;;;;;;;;;;;22.90;40.30;;;;;;1593465;73;1127;-69
2021/10/19 07:23:06;;;;;;;;;;;22.90;39.90;;;;;;1592448;74;1145;-68
2021/10/19 07:25:08;;;;;;;;;;;22.80;40.00;;;;;;1593120;74;726;-69
2021/10/19 07:27:10;;;;;;;;;;;22.80;39.80;;;;;;1589124;74;709;-69
2021/10/19 07:29:12;;;;;;;;;;;22.80;39.70;;;;;;1589858;74;677;-69
2021/10/19 07:31:14;;;;;;;;;;;22.70;39.70;;;;;;1567734;74;755;-69
2021/10/19 07:33:16;;;;;;;;;;;22.70;39.70;;;;;;1578658;74;1212;-68
2021/10/19 07:35:18;;;;;;;;;;;22.60;39.30;;;;;;1622287;72;731;-70
2021/10/19 07:37:20;;;;;;;;;;;22.70;39.50;;;;;;1604710;72;700;-70
2021/10/19 07:39:22;;;;;;;;;;;22.60;39.20;;;;;;1611015;72;1916;-70
2021/10/19 07:41:24;;;;;;;;;;;22.60;39.40;;;;;;1607230;72;950;-70
2021/10/19 07:43:27;;;;;;;;;;;22.60;39.20;;;;;;1625225;72;1146;-70
2021/10/19 07:45:29;;;;;;;;;;;22.50;39.30;;;;;;1615940;72;704;-70
2021/10/19 07:47:31;;;;;;;;;;;22.60;38.70;;;;;;1600647;72;724;-70
2021/10/19 07:49:33;;;;;;;;;;;22.60;38.70;;;;;;1618858;72;733;-67
2021/10/19 07:51:35;;;;;;;;;;;22.50;38.30;;;;;;1632417;72;709;-70
2021/10/19 07:53:36;;;;;;;;;;;22.50;38.60;;;;;;1610734;72;1200;-70
2021/10/19 07:55:38;;;;;;;;;;;22.50;38.70;;;;;;1625328;72;603;-69
2021/10/19 07:57:44;;;;;;;;;;;22.50;38.90;;;;;;1630551;72;761;-72
2021/10/19 07:59:45;;;;;;;;;;;22.50;38.90;;;;;;1622005;72;1935;-72
2021/10/19 08:01:48;;;;;;;;;;;22.40;38.60;;;;;;1607071;72;736;-68
2021/10/19 08:03:50;;;;;;;;;;;22.50;38.70;;;;;;1598067;72;3204;-73
2021/10/19 08:05:51;;;;;;;;;;;22.50;38.70;;;;;;1591263;74;695;-73
2021/10/19 08:07:55;;;;;;;;;;;22.50;38.90;;;;;;1614401;73;708;-73
2021/10/19 08:09:57;;;;;;;;;;;22.40;38.70;;;;;;1579902;73;1926;-76
2021/10/19 08:11:59;;;;;;;;;;;22.60;38.90;;;;;;1573472;74;740;-75
2021/10/19 08:14:01;;;;;;;;;;;22.40;38.40;;;;;;1619708;72;1184;-72
2021/10/19 08:16:03;;;;;;;;;;;22.40;38.40;;;;;;1587592;74;769;-73
2021/10/19 08:18:04;;;;;;;;;;;22.40;38.20;;;;;;1581898;74;805;-76
2021/10/19 08:20:07;;;;;;;;;;;22.40;38.40;;;;;;1604835;73;1938;-73
2021/10/19 08:22:09;;;;;;;;;;;22.40;38.60;;;;;;1615352;72;632;-73
2021/10/19 08:24:11;;;;;;;;;;;22.40;39.10;;;;;;1582245;73;1123;-73
2021/10/19 08:26:13;;;;;;;;;;;22.40;39.20;;;;;;1586768;73;805;-73
2021/10/19 08:28:21;;;;;;;;;;;22.50;39.50;;;;;;1581820;74;673;-72
2021/10/19 08:30:23;;;;;;;;;;;22.50;39.70;;;;;;1565795;73;644;-73
2021/10/19 08:32:25;;;;;;;;;;;22.40;40.00;;;;;;1613618;72;925;-72
2021/10/19 08:34:26;;;;;;;;;;;22.40;40.20;;;;;;1599296;73;1132;-72
2021/10/19 08:36:28;;;;;;;;;;;22.40;40.50;;;;;;1595432;73;741;-73
2021/10/19 08:38:30;;;;;;;;;;;22.40;40.70;;;;;;1595431;73;800;-72
2021/10/19 08:40:32;;;;;;;;;;;22.40;40.80;;;;;;1595497;73;1939;-73
2021/10/19 08:42:41;;;;;;;;;;;22.40;41.00;;;;;;1599074;73;744;-73
2021/10/19 08:44:38;;;;;;;;;;;22.40;41.20;;;;;;1594044;73;1621;-73
2021/10/19 08:46:40;;;;;;;;;;;22.40;41.30;;;;;;1595494;73;720;-73
2021/10/19 08:48:42;;;;;;;;;;;22.40;41.40;;;;;;1596992;73;733;-73
2021/10/19 08:50:44;;;;;;;;;;;22.40;41.50;;;;;;1599560;73;765;-73
2021/10/19 08:52:46;;;;;;;;;;;22.40;41.50;;;;;;1600341;73;1182;-73
2021/10/19 08:54:48;;;;;;;;;;;22.40;41.60;;;;;;1615162;73;747;-73
2021/10/19 08:56:50;;;;;;;;;;;22.40;41.60;;;;;;1617355;73;852;-73
2021/10/19 08:58:59;;;;;;;;;;;22.50;41.50;;;;;;1621114;73;798;-70
2021/10/19 09:01:04;;;;;;;;;;;22.60;41.30;;;;;;1621226;73;766;-72
2021/10/19 09:03:06;;;;;;;;;;;22.70;41.20;;;;;;1619159;73;1148;-72
2021/10/19 09:05:10;;;;;;;;;;;22.80;40.90;;;;;;1611870;73;726;-73
2021/10/19 09:07:12;;;;;;;;;;;23.00;40.80;;;;;;1618112;73;1754;-73
2021/10/19 09:09:24;;;;;;;;;;;23.00;40.60;;;;;;1605946;73;753;-73
2021/10/19 09:11:21;;;;;;;;;;;23.10;40.50;;;;;;1593281;73;1651;-73
2021/10/19 09:13:23;;;;;;;;;;;23.00;40.60;;;;;;1609748;73;1166;-73
2021/10/19 09:15:29;;;;;;;;;;;23.00;40.90;;;;;;1610251;73;786;-73
2021/10/19 09:17:38;;;;;;;;;;;22.90;40.90;;;;;;1612989;73;726;-72
2021/10/19 09:19:44;;;;;;;;;;;22.90;41.10;;;;;;1610531;73;1904;-72
2021/10/19 09:21:44;;;;;;;;;;;22.90;41.10;;;;;;1603681;73;1662;-73
2021/10/19 09:23:50;;;;;;;;;;;22.90;41.20;;;;;;1607989;73;1133;-72
2021/10/19 09:25:50;;;;;;;;;;;22.90;41.20;;;;;;1595353;73;1644;-73
2021/10/19 09:27:53;;;;;;;;;;;23.00;41.10;;;;;;1597395;73;792;-73
2021/10/19 09:29:54;;;;;;;;;;;23.10;41.10;;;;;;1599393;73;783;-73
2021/10/19 09:31:58;;;;;;;;;;;23.10;40.90;;;;;;1595401;73;787;-73
2021/10/19 09:34:06;;;;;;;;;;;23.10;40.80;;;;;;1594592;73;1414;-73
2021/10/19 09:36:03;;;;;;;;;;;23.20;40.70;;;;;;1599129;73;1599;-72
2021/10/19 09:38:06;;;;;;;;;;;23.30;40.70;;;;;;1596208;73;791;-73
2021/10/19 09:40:09;;;;;;;;;;;23.20;40.50;;;;;;1600197;73;1892;-72
2021/10/19 09:42:13;;;;;;;;;;;23.30;40.50;;;;;;1603927;73;715;-72
2021/10/19 09:44:16;;;;;;;;;;;23.30;40.50;;;;;;1601051;73;1123;-74
2021/10/19 09:46:19;;;;;;;;;;;23.30;40.50;;;;;;1600421;73;777;-73
2021/10/19 09:48:31;;;;;;;;;;;23.30;40.50;;;;;;1603752;72;2132;-73
2021/10/19 09:50:31;;;;;;;;;;;23.30;40.40;;;;;;1611309;73;1685;-73
2021/10/19 09:52:39;;;;;;;;;;;23.40;40.40;;;;;;1611940;73;744;-73
2021/10/19 09:54:41;;;;;;;;;;;23.30;40.30;;;;;;1613952;73;1113;-72
2021/10/19 09:56:43;;;;;;;;;;;23.40;40.40;;;;;;1619539;73;742;-73
2021/10/19 09:58:46;;;;;;;;;;;23.50;40.50;;;;;;1621727;73;811;-71
2021/10/19 10:00:48;;;;;;;;;;;23.50;40.50;;;;;;1619871;73;1920;-73
2021/10/19 10:02:50;;;;;;;;;;;23.50;40.40;;;;;;1615680;73;1133;-69
2021/10/19 10:04:53;;;;;;;;;;;23.50;40.50;;;;;;1615735;73;808;-73
2021/10/19 10:06:56;;;;;;;;;;;23.50;40.50;;;;;;1612826;73;708;-73
2021/10/19 10:08:58;;;;;;;;;;;23.40;40.40;;;;;;1615787;73;684;-72
2021/10/19 10:10:59;;;;;;;;;;;23.50;40.50;;;;;;1615659;73;815;-73
2021/10/19 10:13:02;;;;;;;;;;;23.60;40.50;;;;;;1614964;73;1142;-72
2021/10/19 10:15:04;;;;;;;;;;;23.50;40.50;;;;;;1620741;73;713;-72
2021/10/19 10:17:07;;;;;;;;;;;23.60;40.50;;;;;;1621921;73;671;-72
2021/10/19 10:19:16;;;;;;;;;;;23.60;40.50;;;;;;1618791;73;640;-73
2021/10/19 10:21:19;;;;;;;;;;;23.50;40.40;;;;;;1596028;73;1927;-73
2021/10/19 10:23:22;;;;;;;;;;;23.50;40.50;;;;;;1601568;73;1098;-74
2021/10/19 10:25:25;;;;;;;;;;;23.60;40.40;;;;;;1606031;73;733;-73
2021/10/19 10:27:27;;;;;;;;;;;23.60;40.40;;;;;;1600023;73;695;-74
2021/10/19 10:29:30;;;;;;;;;;;23.60;40.50;;;;;;1595609;73;709;-72
2021/10/19 10:31:32;;;;;;;;;;;23.60;40.50;;;;;;1599745;73;1970;-73
2021/10/19 10:33:35;;;;;;;;;;;23.60;40.40;;;;;;1596085;73;1184;-69
2021/10/19 10:35:38;;;;;;;;;;;23.60;40.40;;;;;;1599432;73;645;-72
2021/10/19 10:37:41;;;;;;;;;;;23.60;40.50;;;;;;1601074;72;2004;-73
2021/10/19 10:39:45;;;;;;;;;;;23.60;40.50;;;;;;1595884;73;1932;-71
2021/10/19 10:41:47;;;;;;;;;;;23.50;40.60;;;;;;1604866;73;676;-73
2021/10/19 10:43:58;;;;;;;;;;;23.60;40.60;;;;;;1596918;73;1139;-72
2021/10/19 10:46:02;;;;;;;;;;;23.50;40.70;;;;;;1596198;73;828;-73
2021/10/19 10:48:04;;;;;;;;;;;23.60;40.70;;;;;;1601571;73;1109;-74
2021/10/19 10:50:06;;;;;;;;;;;23.50;40.60;;;;;;1601071;73;727;-73
2021/10/19 10:52:15;;;;;;;;;;;23.60;40.60;;;;;;1617397;73;782;-73
2021/10/19 10:54:18;;;;;;;;;;;23.60;40.60;;;;;;1621487;73;1122;-72
2021/10/19 10:56:20;;;;;;;;;;;23.60;40.60;;;;;;1623095;73;750;-72
2021/10/19 10:58:22;;;;;;;;;;;23.60;40.70;;;;;;1613929;73;763;-74
2021/10/19 11:00:25;;;;;;;;;;;23.60;40.60;;;;;;1619965;73;1922;-72
2021/10/19 11:02:27;;;;;;;;;;;23.60;40.50;;;;;;1620890;73;792;-73
2021/10/19 11:04:29;;;;;;;;;;;23.60;40.50;;;;;;1623397;73;1161;-73
2021/10/19 11:06:30;;;;;;;;;;;23.60;40.50;;;;;;1623132;73;760;-73
2021/10/19 11:08:34;;;;;;;;;;;23.60;40.50;;;;;;1599617;73;775;-74
2021/10/19 11:10:35;;;;;;;;;;;23.60;40.50;;;;;;1599938;73;677;-72
2021/10/19 11:12:38;;;;;;;;;;;23.70;40.60;;;;;;1600567;73;806;-73
2021/10/19 11:14:40;;;;;;;;;;;23.60;40.60;;;;;;1595636;73;1087;-72
2021/10/19 11:16:42;;;;;;;;;;;23.50;40.80;;;;;;1596026;73;731;-72
2021/10/19 11:18:44;;;;;;;;;;;23.60;41.00;;;;;;1602746;73;771;-71
2021/10/19 11:20:53;;;;;;;;;;;23.60;41.00;;;;;;1612138;73;1937;-72
2021/10/19 11:22:55;;;;;;;;;;;23.60;41.00;;;;;;1596022;73;1129;-72
2021/10/19 11:24:57;;;;;;;;;;;23.60;41.00;;;;;;1609309;73;665;-73
2021/10/19 11:27:02;;;;;;;;;;;23.70;41.00;;;;;;1606174;73;817;-72
2021/10/19 11:29:04;;;;;;;;;;;23.70;40.90;;;;;;1601453;73;764;-72
2021/10/19 11:31:06;;;;;;;;;;;23.70;41.00;;;;;;1600406;73;806;-71
2021/10/19 11:33:08;;;;;;;;;;;23.80;40.90;;;;;;1602689;73;1197;-72
2021/10/19 11:35:10;;;;;;;;;;;23.70;41.00;;;;;;1606685;73;709;-72
2021/10/19 11:37:12;;;;;;;;;;;23.70;41.00;;;;;;1613358;73;742;-72
2021/10/19 11:39:15;;;;;;;;;;;23.70;41.00;;;;;;1605863;73;736;-72
2021/10/19 11:41:21;;;;;;;;;;;23.70;41.00;;;;;;1607043;73;1944;-72
2021/10/19 11:43:23;;;;;;;;;;;23.70;41.00;;;;;;1600535;73;1118;-72
2021/10/19 11:45:25;;;;;;;;;;;23.70;41.20;;;;;;1600658;73;747;-74
2021/10/19 11:47:27;;;;;;;;;;;23.60;41.20;;;;;;1603576;73;720;-74
2021/10/19 11:49:30;;;;;;;;;;;23.70;41.30;;;;;;1600603;73;718;-74
2021/10/19 11:51:31;;;;;;;;;;;23.60;41.30;;;;;;1604022;73;739;-74
2021/10/19 11:53:34;;;;;;;;;;;23.60;41.30;;;;;;1617325;73;1118;-74
2021/10/19 11:55:36;;;;;;;;;;;23.60;41.40;;;;;;1616250;73;709;-70
2021/10/19 11:57:38;;;;;;;;;;;23.60;41.50;;;;;;1617094;73;830;-73
2021/10/19 11:59:44;;;;;;;;;;;23.50;41.60;;;;;;1622494;73;653;-72
2021/10/19 12:01:46;;;;;;;;;;;23.60;41.50;;;;;;1613828;73;1928;-72
2021/10/19 12:04:00;;;;;;;;;;;23.50;41.50;;;;;;1598615;73;1118;-72
2021/10/19 12:06:04;;;;;;;;;;;23.50;41.60;;;;;;1620437;73;794;-73
2021/10/19 12:08:06;;;;;;;;;;;23.40;41.50;;;;;;1612986;73;1339;-73
2021/10/19 12:10:08;;;;;;;;;;;23.40;41.60;;;;;;1591184;74;1082;-73